< < Back
Terminal Aerodrome Forecast


Current Version              Previous Versions:   1  2  3  4  5  6  7  8  9  

Terminal Aerodrome Forecast

178
FTUS44 KMRX 221736
TAFTYS
TAF
KTYS 221736Z 2218/2318 03010G18KT P6SM SCT035
     FM230000 03004KT P6SM SKC
     FM231500 02006KT P6SM SKC=



Latest METAR

549
SAUS80 KWBC 231100
MTRTYS
METAR KTYS 231053Z 36004KT 10SM FEW040 06/03 A3020 RMK AO2 SLP227
T00560033


USA.gov is the U.S. government's official web portal to all federal, state and local government web resources and services.